Time;durP1;ratioP1;P1;durP2;ratioP2;P2;SDS_P1;SDS_P2;PMS_P1;PMS_P2;Temp;Humidity;BMP_temperature;BMP_pressure;BME280_temperature;BME280_humidity;BME280_pressure;Samples;Min_cycle;Max_cycle;Signal;HPM_P1;HPM_P2
2022/06/19 00:00:29;;;;;;;6.83;3.03;;;17.20;99.90;;;;;;5091699;28;20455;-72
2022/06/19 00:02:56;;;;;;;17.50;4.30;;;17.20;99.90;;;;;;5085171;28;20544;-71
2022/06/19 00:05:23;;;;;;;10.68;3.20;;;17.10;99.90;;;;;;5078849;28;20539;-72
2022/06/19 00:07:50;;;;;;;16.90;4.13;;;17.00;99.90;;;;;;5085002;28;20207;-71
2022/06/19 00:10:17;;;;;;;15.57;5.57;;;17.00;99.90;;;;;;5079421;28;20487;-71
2022/06/19 00:12:45;;;;;;;8.93;3.58;;;16.90;99.90;;;;;;5084587;28;20983;-71
2022/06/19 00:15:12;;;;;;;11.68;3.30;;;16.90;99.90;;;;;;5080710;28;20185;-72
2022/06/19 00:17:39;;;;;;;12.13;2.90;;;16.90;99.90;;;;;;5080212;28;20194;-71
2022/06/19 00:20:08;;;;;;;8.57;2.97;;;16.80;99.90;;;;;;5082811;28;20367;-74
2022/06/19 00:22:35;;;;;;;9.85;2.72;;;16.70;99.90;;;;;;5082143;28;20480;-73
2022/06/19 00:25:02;;;;;;;8.98;3.60;;;16.80;99.90;;;;;;5080441;28;20188;-72
2022/06/19 00:27:29;;;;;;;16.23;3.40;;;16.60;99.90;;;;;;5086039;28;20197;-73
2022/06/19 00:29:59;;;;;;;12.67;3.47;;;16.60;99.90;;;;;;5085511;28;20501;-69
2022/06/19 00:32:27;;;;;;;20.90;5.22;;;16.60;99.90;;;;;;5074806;28;20462;-72
2022/06/19 00:34:54;;;;;;;9.07;3.38;;;16.60;99.90;;;;;;5086303;28;20260;-73
2022/06/19 00:37:21;;;;;;;17.58;4.05;;;16.50;99.90;;;;;;5071695;28;20193;-70
2022/06/19 00:39:51;;;;;;;9.13;3.42;;;16.50;99.90;;;;;;5072618;28;20200;-72
2022/06/19 00:42:19;;;;;;;13.65;3.55;;;16.50;99.90;;;;;;5094084;28;20227;-71
2022/06/19 00:44:47;;;;;;;14.98;3.95;;;16.50;99.90;;;;;;5085605;28;20192;-72
2022/06/19 00:47:20;;;;;;;14.03;4.10;;;16.50;99.90;;;;;;5084775;28;20231;-71
2022/06/19 00:49:51;;;;;;;14.60;3.30;;;16.40;99.90;;;;;;5084339;28;20459;-74
2022/06/19 00:52:21;;;;;;;12.77;4.75;;;16.40;99.90;;;;;;5088291;28;20211;-69
2022/06/19 00:54:51;;;;;;;11.98;3.55;;;16.30;99.90;;;;;;5076701;28;20217;-72
2022/06/19 00:57:20;;;;;;;7.97;2.70;;;16.30;99.90;;;;;;5074107;28;20304;-74
2022/06/19 00:59:55;;;;;;;12.15;4.50;;;16.30;99.90;;;;;;5085352;28;20264;-70
2022/06/19 01:02:24;;;;;;;18.42;4.70;;;16.30;99.90;;;;;;5083388;28;20334;-71
2022/06/19 01:04:54;;;;;;;15.95;4.00;;;16.20;99.90;;;;;;5076236;28;20226;-72
2022/06/19 01:07:28;;;;;;;9.73;3.75;;;16.20;99.90;;;;;;5091122;28;20193;-73
2022/06/19 01:09:55;;;;;;;15.82;4.57;;;16.20;99.90;;;;;;5084407;28;20477;-72
2022/06/19 01:12:24;;;;;;;12.85;3.80;;;16.10;99.90;;;;;;5083977;28;20189;-74
2022/06/19 01:14:57;;;;;;;12.43;4.28;;;16.10;99.90;;;;;;5087277;28;20340;-71
2022/06/19 01:17:26;;;;;;;10.45;3.80;;;16.10;99.90;;;;;;5085696;28;20259;-73
2022/06/19 01:19:53;;;;;;;16.85;4.20;;;16.10;99.90;;;;;;5089375;27;20247;-70
2022/06/19 01:22:33;;;;;;;13.45;4.68;;;16.10;99.90;;;;;;5086508;28;20330;-73
2022/06/19 01:25:06;;;;;;;14.85;4.07;;;16.10;99.90;;;;;;5082855;28;20290;-71
2022/06/19 01:30:22;;;;;;;10.60;4.35;;;16.10;99.90;;;;;;5084828;28;20255;-72
2022/06/19 01:32:51;;;;;;;14.10;5.72;;;16.10;99.90;;;;;;5085763;28;20200;-70
2022/06/19 01:35:22;;;;;;;18.45;5.05;;;16.10;99.90;;;;;;5088286;28;20370;-75
2022/06/19 01:37:50;;;;;;;13.50;5.03;;;16.10;99.90;;;;;;5080475;28;20188;-71
2022/06/19 01:40:22;;;;;;;12.43;4.65;;;16.10;99.90;;;;;;5087419;28;20209;-72
2022/06/19 01:42:49;;;;;;;11.25;3.80;;;16.00;99.90;;;;;;5087274;28;20231;-73
2022/06/19 01:45:17;;;;;;;14.13;3.88;;;16.10;99.90;;;;;;5089579;27;20219;-74
2022/06/19 01:47:45;;;;;;;18.05;4.60;;;16.00;99.90;;;;;;5085167;28;20351;-69
2022/06/19 01:50:15;;;;;;;14.93;4.35;;;16.00;99.90;;;;;;5080750;27;20485;-73
2022/06/19 01:52:42;;;;;;;15.00;3.80;;;16.00;99.90;;;;;;5089131;28;20224;-71
2022/06/19 01:55:12;;;;;;;11.30;4.55;;;16.10;99.90;;;;;;5091279;28;20207;-72
2022/06/19 01:57:43;;;;;;;13.80;3.30;;;16.00;99.90;;;;;;5090835;28;20202;-73
2022/06/19 02:00:16;;;;;;;12.27;3.88;;;16.00;99.90;;;;;;5090234;28;20214;-71
2022/06/19 02:02:46;;;;;;;18.13;4.07;;;16.10;99.90;;;;;;5083739;28;20230;-71
2022/06/19 02:05:13;;;;;;;5.82;3.08;;;16.10;99.90;;;;;;5090846;28;20191;-73
2022/06/19 02:07:40;;;;;;;14.68;4.00;;;16.10;99.90;;;;;;5090889;28;20183;-70
2022/06/19 02:10:08;;;;;;;16.95;4.40;;;16.10;99.90;;;;;;5090735;28;20327;-73
2022/06/19 02:12:36;;;;;;;10.25;3.40;;;16.10;99.90;;;;;;5089440;28;20196;-71
2022/06/19 02:15:10;;;;;;;13.80;4.80;;;16.00;99.90;;;;;;5091212;28;20394;-71
2022/06/19 02:17:42;;;;;;;17.20;6.10;;;15.90;99.90;;;;;;5083125;28;20402;-74
2022/06/19 02:20:11;;;;;;;10.80;4.22;;;15.90;99.90;;;;;;5077479;28;20284;-70
2022/06/19 02:22:44;;;;;;;14.40;5.47;;;15.90;99.90;;;;;;5084297;28;20240;-70
2022/06/19 02:25:11;;;;;;;15.13;4.80;;;16.00;99.90;;;;;;5091562;28;20395;-73
2022/06/19 02:27:40;;;;;;;14.68;4.00;;;16.00;99.90;;;;;;5087997;28;20440;-74
2022/06/19 02:30:13;;;;;;;15.35;3.60;;;16.00;99.90;;;;;;5082309;28;20444;-70
2022/06/19 02:32:45;;;;;;;8.52;3.08;;;16.00;99.90;;;;;;5087602;28;20211;-72
2022/06/19 02:35:16;;;;;;;14.30;4.10;;;16.00;99.90;;;;;;5077786;28;20241;-69
2022/06/19 02:37:47;;;;;;;8.50;3.15;;;16.00;99.90;;;;;;5087705;28;20194;-70
2022/06/19 02:40:26;;;;;;;14.10;4.22;;;16.00;99.90;;;;;;5085231;27;20663;-74
2022/06/19 02:42:53;;;;;;;13.57;4.30;;;16.00;99.90;;;;;;5086908;28;20214;-70
2022/06/19 02:45:24;;;;;;;14.57;4.35;;;15.90;99.90;;;;;;5086233;28;20222;-72
2022/06/19 02:47:53;;;;;;;11.68;3.53;;;15.90;99.90;;;;;;5087180;28;20198;-71
2022/06/19 02:50:23;;;;;;;13.63;4.47;;;15.90;99.90;;;;;;5087665;28;20223;-70
2022/06/19 02:52:51;;;;;;;14.73;3.58;;;15.90;99.90;;;;;;5088691;28;20206;-71
2022/06/19 02:55:19;;;;;;;15.93;4.15;;;16.00;99.90;;;;;;5086998;28;20189;-70
2022/06/19 02:57:47;;;;;;;13.63;4.47;;;16.00;99.90;;;;;;5089736;27;20187;-68
2022/06/19 03:00:16;;;;;;;16.85;4.47;;;16.00;99.90;;;;;;5090629;28;20212;-71
2022/06/19 03:02:45;;;;;;;12.25;3.88;;;15.90;99.90;;;;;;5075816;28;20219;-69
2022/06/19 03:05:19;;;;;;;18.95;8.40;;;15.90;99.90;;;;;;5096644;28;20188;-69
2022/06/19 03:07:45;;;;;;;15.13;4.20;;;16.00;99.90;;;;;;5088670;28;20200;-70
2022/06/19 03:10:12;;;;;;;22.42;6.10;;;15.90;99.90;;;;;;5087793;28;20481;-71
2022/06/19 03:12:39;;;;;;;11.85;4.95;;;15.90;99.90;;;;;;5079992;28;20224;-71
2022/06/19 03:15:07;;;;;;;15.18;5.50;;;15.90;99.90;;;;;;5084354;28;20205;-72
2022/06/19 03:17:34;;;;;;;12.45;5.90;;;15.90;99.90;;;;;;5082570;28;20226;-71
2022/06/19 03:20:04;;;;;;;17.65;5.88;;;15.90;99.90;;;;;;5076458;28;20243;-72
2022/06/19 03:22:31;;;;;;;12.13;4.70;;;15.90;99.90;;;;;;5087829;28;20466;-74
2022/06/19 03:24:57;;;;;;;13.07;5.45;;;15.90;99.90;;;;;;5088206;28;20214;-71
2022/06/19 03:27:25;;;;;;;14.95;4.40;;;15.90;99.90;;;;;;5078846;28;20203;-71
2022/06/19 03:29:51;;;;;;;17.23;4.63;;;15.90;99.90;;;;;;5092639;28;20206;-72
2022/06/19 03:32:18;;;;;;;12.88;4.03;;;15.90;99.90;;;;;;5079865;28;20215;-73
2022/06/19 03:34:59;;;;;;;12.02;4.32;;;15.90;99.90;;;;;;5095993;28;20205;-71
2022/06/19 03:37:27;;;;;;;12.73;4.10;;;15.90;99.90;;;;;;5088039;28;20210;-72
2022/06/19 03:39:54;;;;;;;14.38;4.70;;;15.90;99.90;;;;;;5085758;27;20258;-72
2022/06/19 03:42:21;;;;;;;13.77;3.95;;;15.90;99.90;;;;;;5087314;28;20207;-72
2022/06/19 03:44:48;;;;;;;11.48;4.85;;;15.90;99.90;;;;;;5087658;28;20221;-71
2022/06/19 03:47:19;;;;;;;13.10;3.90;;;16.00;99.90;;;;;;5081559;28;20227;-72
2022/06/19 03:49:47;;;;;;;12.85;5.57;;;16.10;99.90;;;;;;5081318;28;20243;-73
2022/06/19 03:52:14;;;;;;;22.20;4.68;;;16.20;99.90;;;;;;5085126;28;20189;-73
2022/06/19 03:54:42;;;;;;;23.50;5.35;;;16.20;99.90;;;;;;5082686;28;20213;-72
2022/06/19 03:57:48;;;;;;;17.73;3.53;;;16.30;99.90;;;;;;5087247;28;20190;-71
2022/06/19 04:00:18;;;;;;;22.25;4.45;;;16.50;99.90;;;;;;5088633;28;20270;-71
2022/06/19 04:02:45;;;;;;;10.70;3.50;;;16.50;99.90;;;;;;5090145;28;20231;-71
2022/06/19 04:05:12;;;;;;;14.10;3.33;;;16.60;99.90;;;;;;5081453;28;20304;-71
2022/06/19 04:07:44;;;;;;;14.48;3.55;;;16.60;99.90;;;;;;5086649;28;20222;-71
2022/06/19 04:10:13;;;;;;;11.65;3.72;;;16.50;99.90;;;;;;5085836;28;20223;-73
2022/06/19 04:12:40;;;;;;;12.95;3.72;;;16.50;99.90;;;;;;5085141;28;20352;-71
2022/06/19 04:15:09;;;;;;;9.35;2.90;;;16.50;99.90;;;;;;5090570;28;20258;-72
2022/06/19 04:17:36;;;;;;;12.18;3.13;;;16.60;99.90;;;;;;5082011;28;20254;-73
2022/06/19 04:20:03;;;;;;;11.95;5.28;;;16.60;99.90;;;;;;5074203;28;20275;-73
2022/06/19 04:22:31;;;;;;;12.50;3.03;;;16.50;99.90;;;;;;5074349;28;20262;-72
2022/06/19 04:24:57;;;;;;;9.95;3.10;;;16.60;99.90;;;;;;5083546;28;20447;-72
2022/06/19 04:27:26;;;;;;;12.30;4.18;;;16.60;99.90;;;;;;5084976;28;20215;-71
2022/06/19 04:29:53;;;;;;;20.35;4.50;;;16.70;99.90;;;;;;5077016;28;20208;-73
2022/06/19 04:32:19;;;;;;;16.75;3.38;;;16.70;99.90;;;;;;5077692;28;20256;-73
2022/06/19 04:34:46;;;;;;;14.82;3.47;;;16.90;99.90;;;;;;5094201;28;20201;-72
2022/06/19 04:37:13;;;;;;;17.80;4.87;;;17.10;99.90;;;;;;5087632;28;20224;-71
2022/06/19 04:39:40;;;;;;;8.83;3.10;;;17.30;99.90;;;;;;5087376;28;20459;-71
2022/06/19 04:42:08;;;;;;;17.07;4.23;;;17.40;99.90;;;;;;5081112;28;20710;-71
2022/06/19 04:44:37;;;;;;;15.17;5.90;;;17.50;99.90;;;;;;5079523;28;20484;-72
2022/06/19 04:47:05;;;;;;;12.87;3.80;;;17.60;99.90;;;;;;5082124;28;20433;-72
2022/06/19 04:49:32;;;;;;;9.23;3.10;;;17.50;99.90;;;;;;5082391;28;20466;-73
2022/06/19 04:51:59;;;;;;;18.40;3.43;;;17.50;99.90;;;;;;5076896;28;20229;-73
2022/06/19 04:54:26;;;;;;;12.93;3.80;;;17.50;99.90;;;;;;5078352;28;20441;-72
2022/06/19 04:56:53;;;;;;;14.20;5.15;;;17.40;99.90;;;;;;5085406;28;20569;-70
2022/06/19 04:59:21;;;;;;;12.82;3.80;;;17.50;99.90;;;;;;5089185;28;20247;-73
2022/06/19 05:01:49;;;;;;;9.80;4.20;;;17.50;99.90;;;;;;5087230;28;20186;-73
2022/06/19 05:04:16;;;;;;;8.97;3.37;;;17.60;99.90;;;;;;5073110;28;20489;-71
2022/06/19 05:06:43;;;;;;;6.13;3.00;;;17.80;99.90;;;;;;5079677;28;20534;-71
2022/06/19 05:09:10;;;;;;;11.77;3.60;;;17.90;99.90;;;;;;5084837;28;20456;-73
2022/06/19 05:11:37;;;;;;;13.57;3.87;;;17.90;99.90;;;;;;5080047;28;20448;-72
2022/06/19 05:14:04;;;;;;;17.47;3.50;;;17.80;99.90;;;;;;5077270;28;20456;-73
2022/06/19 05:16:32;;;;;;;16.30;4.63;;;17.60;99.90;;;;;;5081478;28;20429;-72
2022/06/19 05:19:02;;;;;;;13.07;5.05;;;17.50;99.90;;;;;;5078619;28;20428;-71
2022/06/19 05:21:29;;;;;;;13.80;3.60;;;17.40;99.90;;;;;;5070565;28;20458;-71
2022/06/19 05:23:57;;;;;;;10.97;3.67;;;17.40;99.90;;;;;;5075793;28;20494;-70
2022/06/19 05:26:26;;;;;;;10.93;3.15;;;17.40;99.90;;;;;;5075894;28;20431;-71
2022/06/19 05:28:53;;;;;;;11.60;4.07;;;17.40;99.90;;;;;;5081010;28;20457;-72
2022/06/19 05:31:21;;;;;;;13.25;3.65;;;17.50;99.90;;;;;;5083432;28;20443;-73
2022/06/19 05:33:48;;;;;;;10.90;3.27;;;17.60;99.90;;;;;;5082323;28;20418;-72
2022/06/19 05:36:17;;;;;;;11.00;3.30;;;17.80;99.90;;;;;;5079459;28;20452;-72
2022/06/19 05:38:44;;;;;;;5.00;2.33;;;17.70;99.90;;;;;;5085170;28;20451;-72
2022/06/19 05:41:11;;;;;;;7.93;2.17;;;17.70;99.90;;;;;;5084302;28;20487;-71
2022/06/19 05:43:39;;;;;;;12.80;3.50;;;17.60;99.90;;;;;;5085236;28;20209;-72
2022/06/19 05:46:08;;;;;;;11.67;4.93;;;17.60;99.90;;;;;;5085269;28;20520;-73
2022/06/19 05:48:36;;;;;;;13.45;3.22;;;17.60;99.90;;;;;;5084337;28;20455;-73
2022/06/19 05:51:07;;;;;;;16.20;3.17;;;17.50;99.90;;;;;;5083697;28;20218;-71
2022/06/19 05:53:39;;;;;;;10.13;2.87;;;17.60;99.90;;;;;;5087058;28;20426;-72
2022/06/19 05:56:07;;;;;;;6.53;3.40;;;17.70;99.90;;;;;;5087789;28;20441;-70
2022/06/19 05:59:14;;;;;;;11.57;3.23;;;17.70;99.90;;;;;;5089948;28;20504;-72
2022/06/19 06:01:41;;;;;;;14.83;3.40;;;17.80;99.90;;;;;;5090205;28;20432;-71
2022/06/19 06:04:07;;;;;;;11.73;3.33;;;18.00;99.90;;;;;;5092943;28;20491;-71
2022/06/19 06:06:34;;;;;;;9.93;3.40;;;18.10;99.90;;;;;;5094222;28;20438;-72
2022/06/19 06:09:03;;;;;;;9.30;2.83;;;18.10;99.90;;;;;;5092800;28;20462;-72
2022/06/19 06:11:29;;;;;;;12.17;2.87;;;18.10;99.90;;;;;;5093774;28;20434;-71
2022/06/19 06:13:57;;;;;;;16.33;3.20;;;18.20;99.90;;;;;;5087991;28;20625;-72
2022/06/19 06:16:25;;;;;;;12.00;3.27;;;18.40;99.90;;;;;;5088994;28;20421;-73
2022/06/19 06:18:53;;;;;;;8.47;2.70;;;18.50;99.90;;;;;;5086066;28;20615;-70
2022/06/19 06:21:23;;;;;;;13.10;3.23;;;18.60;99.90;;;;;;5086076;28;22111;-72
2022/06/19 06:23:52;;;;;;;7.53;3.40;;;18.50;99.90;;;;;;5087033;28;20483;-73
2022/06/19 06:26:22;;;;;;;10.20;3.10;;;18.60;99.90;;;;;;5086077;28;20457;-71
2022/06/19 06:28:51;;;;;;;6.93;2.63;;;18.90;99.90;;;;;;5086234;28;20541;-71
2022/06/19 06:31:19;;;;;;;11.30;3.30;;;19.30;99.90;;;;;;5085520;28;20429;-72
2022/06/19 06:33:46;;;;;;;4.47;2.53;;;20.30;99.90;;;;;;5086968;28;20448;-72
2022/06/19 06:36:14;;;;;;;5.93;3.07;;;21.10;99.90;;;;;;5084556;28;20424;-71
2022/06/19 06:38:41;;;;;;;12.63;2.83;;;21.70;99.20;;;;;;5086490;28;20460;-73
2022/06/19 06:41:10;;;;;;;8.43;2.67;;;22.60;97.60;;;;;;5087166;28;20460;-72
2022/06/19 06:43:41;;;;;;;9.83;2.90;;;23.70;94.30;;;;;;5085175;28;20492;-73
2022/06/19 06:46:10;;;;;;;9.97;3.67;;;24.30;91.90;;;;;;5082933;28;20558;-72
2022/06/19 06:48:37;;;;;;;10.57;3.67;;;23.70;91.80;;;;;;5088154;28;20441;-69
2022/06/19 06:51:06;;;;;;;9.30;2.60;;;23.10;92.60;;;;;;5090206;28;20468;-72
2022/06/19 06:53:33;;;;;;;9.10;2.70;;;23.20;92.30;;;;;;5084568;28;20435;-72
2022/06/19 06:56:00;;;;;;;9.20;2.67;;;23.50;92.50;;;;;;5093567;28;20422;-73
2022/06/19 06:58:27;;;;;;;7.97;2.80;;;24.00;91.50;;;;;;5087992;28;20465;-71
2022/06/19 07:00:55;;;;;;;8.00;2.70;;;24.60;89.70;;;;;;5081964;28;20473;-73
2022/06/19 07:03:22;;;;;;;6.57;2.20;;;24.70;88.80;;;;;;5086824;28;20465;-72
2022/06/19 07:05:50;;;;;;;8.00;2.97;;;25.30;85.70;;;;;;5086272;28;20453;-74
2022/06/19 07:08:17;;;;;;;6.30;2.87;;;26.00;84.60;;;;;;5087591;28;20557;-72
2022/06/19 07:10:44;;;;;;;6.53;2.67;;;27.10;80.20;;;;;;5085725;28;20531;-73
2022/06/19 07:13:12;;;;;;;6.27;2.20;;;27.50;78.00;;;;;;5085573;28;20536;-73
2022/06/19 07:15:40;;;;;;;5.73;2.27;;;27.10;75.60;;;;;;5087325;28;20438;-72
2022/06/19 07:18:08;;;;;;;7.43;3.00;;;26.30;76.80;;;;;;5082012;28;20437;-72
2022/06/19 07:20:35;;;;;;;8.93;3.03;;;25.20;80.30;;;;;;5082181;28;20465;-71
2022/06/19 07:23:04;;;;;;;9.40;2.50;;;24.60;82.90;;;;;;5069868;28;20448;-71
2022/06/19 07:25:32;;;;;;;6.40;2.93;;;24.20;84.30;;;;;;5072101;28;20578;-71
2022/06/19 07:27:59;;;;;;;7.03;2.63;;;24.00;85.20;;;;;;5083681;28;20448;-72
2022/06/19 07:30:28;;;;;;;10.17;2.60;;;24.10;84.60;;;;;;5080043;28;20481;-73
2022/06/19 07:32:55;;;;;;;5.30;1.73;;;24.60;82.30;;;;;;5084369;28;20500;-73
2022/06/19 07:35:25;;;;;;;11.63;3.03;;;25.40;79.10;;;;;;5084078;28;20452;-74
2022/06/19 07:37:52;;;;;;;5.33;2.47;;;25.90;78.20;;;;;;5084801;28;20452;-74
2022/06/19 07:40:21;;;;;;;5.27;2.20;;;26.10;77.30;;;;;;5086226;28;20465;-72
2022/06/19 07:42:48;;;;;;;6.20;2.27;;;26.10;76.60;;;;;;5081846;28;20449;-73
2022/06/19 07:45:15;;;;;;;7.57;2.40;;;26.00;76.90;;;;;;5084571;28;20462;-73
2022/06/19 07:50:29;;;;;;;6.53;2.60;;;26.40;75.10;;;;;;5085096;28;20526;-71
2022/06/19 07:52:56;;;;;;;4.43;2.37;;;26.40;72.70;;;;;;5085941;28;20692;-73
2022/06/19 07:55:25;;;;;;;7.83;2.83;;;26.50;72.50;;;;;;5085094;28;20449;-73
2022/06/19 07:57:53;;;;;;;5.57;2.33;;;26.20;72.70;;;;;;5085642;28;20422;-73
2022/06/19 08:00:22;;;;;;;7.13;2.50;;;26.00;72.80;;;;;;5085412;28;20639;-73
2022/06/19 08:02:53;;;;;;;5.33;2.13;;;26.00;73.50;;;;;;5086666;28;20426;-71
2022/06/19 08:05:22;;;;;;;6.00;1.97;;;26.20;71.10;;;;;;5086114;28;20493;-73
2022/06/19 08:07:52;;;;;;;10.90;3.70;;;26.10;70.80;;;;;;5086698;28;20465;-73
2022/06/19 08:10:23;;;;;;;7.90;2.50;;;25.70;71.50;;;;;;5085134;28;20469;-72
2022/06/19 08:12:52;;;;;;;6.30;2.63;;;25.60;71.80;;;;;;5087453;28;20494;-73
2022/06/19 08:15:20;;;;;;;10.90;2.47;;;26.20;71.50;;;;;;5082035;28;20436;-71
2022/06/19 08:17:47;;;;;;;10.00;2.30;;;27.20;69.30;;;;;;5090709;28;20599;-74
2022/06/19 08:20:16;;;;;;;7.23;1.63;;;28.10;67.50;;;;;;5083147;28;20453;-71
2022/06/19 08:22:43;;;;;;;5.97;3.13;;;29.10;66.40;;;;;;5091548;28;20525;-72
2022/06/19 08:25:15;;;;;;;6.60;1.90;;;29.00;63.90;;;;;;5086646;28;20524;-70
2022/06/19 08:28:10;;;;;;;6.30;2.10;;;28.30;62.40;;;;;;5086995;28;20422;-72
2022/06/19 08:30:39;;;;;;;8.70;2.70;;;27.70;61.90;;;;;;5082573;28;20486;-72
2022/06/19 08:33:07;;;;;;;8.87;1.77;;;27.00;62.80;;;;;;5086466;28;20448;-73
2022/06/19 08:35:38;;;;;;;6.97;1.80;;;26.50;63.60;;;;;;5091225;28;20494;-71
2022/06/19 08:38:08;;;;;;;5.63;2.33;;;26.20;64.60;;;;;;5084983;28;20442;-71
2022/06/19 08:41:05;;;;;;;5.93;2.40;;;25.60;66.10;;;;;;5085148;28;20449;-71
2022/06/19 08:44:00;;;;;;;7.00;1.93;;;25.10;66.30;;;;;;5082481;28;20425;-70
2022/06/19 08:46:40;;;;;;;5.57;2.13;;;24.50;67.40;;;;;;5081338;28;20449;-70
2022/06/19 08:49:43;;;;;;;5.80;1.90;;;24.00;69.40;;;;;;5080794;28;20701;-70
2022/06/19 08:52:21;;;;;;;7.57;1.73;;;23.90;70.30;;;;;;5075513;28;20988;-70
2022/06/19 08:54:59;;;;;;;6.50;1.90;;;23.80;69.80;;;;;;5074888;28;20479;-71
2022/06/19 08:57:34;;;;;;;2.70;1.80;;;23.80;70.80;;;;;;5075081;28;20570;-74
2022/06/19 09:00:08;;;;;;;5.97;2.23;;;23.70;71.70;;;;;;5070206;28;20462;-72
2022/06/19 09:02:44;;;;;;;6.77;2.17;;;23.70;70.20;;;;;;5070511;28;20453;-70
2022/06/19 09:05:36;;;;;;;7.10;2.13;;;23.90;71.20;;;;;;5083666;28;20492;-71
2022/06/19 09:08:32;;;;;;;4.77;2.00;;;24.60;70.70;;;;;;5079662;28;20429;-73
2022/06/19 09:11:10;;;;;;;3.03;1.27;;;25.40;69.70;;;;;;5077256;28;20469;-69
2022/06/19 09:13:52;;;;;;;5.03;2.07;;;25.80;68.20;;;;;;5078289;28;20433;-71
2022/06/19 09:16:25;;;;;;;3.30;2.10;;;25.80;68.60;;;;;;5076970;28;20449;-68
2022/06/19 09:19:06;;;;;;;3.87;2.47;;;25.70;69.10;;;;;;5076233;28;20426;-70
2022/06/19 09:21:39;;;;;;;11.13;1.97;;;25.40;68.90;;;;;;5083403;28;20429;-70
2022/06/19 09:24:36;;;;;;;8.83;2.67;;;25.00;70.30;;;;;;5086145;28;20453;-71
2022/06/19 09:27:03;;;;;;;5.80;2.30;;;24.60;71.10;;;;;;5085834;28;20436;-70
2022/06/19 09:29:38;;;;;;;4.70;1.60;;;24.10;71.80;;;;;;5091076;28;20460;-71
2022/06/19 09:32:14;;;;;;;5.07;2.73;;;23.60;71.80;;;;;;5085381;28;20444;-72
2022/06/19 09:34:50;;;;;;;3.20;1.70;;;23.10;73.40;;;;;;5092905;28;20483;-71
2022/06/19 09:37:22;;;;;;;6.03;1.70;;;22.70;75.30;;;;;;5090967;28;20538;-70
2022/06/19 09:39:55;;;;;;;5.63;1.67;;;22.30;78.60;;;;;;5085831;28;20452;-71
2022/06/19 09:42:25;;;;;;;5.90;2.20;;;22.10;82.40;;;;;;5088570;28;20611;-73
2022/06/19 09:44:59;;;;;;;6.40;3.83;;;21.90;86.00;;;;;;5088665;28;20475;-72
2022/06/19 09:47:34;;;;;;;12.80;2.60;;;22.00;88.20;;;;;;5088040;28;20448;-70
2022/06/19 09:50:07;;;;;;;5.10;2.27;;;21.90;89.00;;;;;;5079783;28;20460;-70
2022/06/19 09:52:41;;;;;;;7.93;2.73;;;21.60;90.40;;;;;;5088996;28;20448;-71
2022/06/19 09:55:16;;;;;;;3.23;2.30;;;21.30;90.70;;;;;;5080889;28;20521;-72
2022/06/19 09:57:48;;;;;;;5.50;2.37;;;20.90;90.70;;;;;;5077349;28;20496;-70
2022/06/19 10:00:23;;;;;;;5.97;2.45;;;20.70;91.80;;;;;;5078116;28;20418;-71
2022/06/19 10:02:55;;;;;;;4.43;2.05;;;20.40;91.00;;;;;;5086923;28;20678;-72
2022/06/19 10:05:30;;;;;;;6.67;3.17;;;20.30;91.90;;;;;;5087387;28;20425;-69
2022/06/19 10:08:03;;;;;;;6.97;3.90;;;20.30;92.30;;;;;;5088737;28;20428;-69
2022/06/19 10:10:38;;;;;;;9.13;3.90;;;20.40;93.10;;;;;;5081129;28;20458;-72
2022/06/19 10:13:13;;;;;;;5.63;3.23;;;20.50;93.20;;;;;;5087045;28;20480;-72
2022/06/19 10:15:44;;;;;;;8.60;3.80;;;20.70;93.40;;;;;;5083327;28;20485;-72
2022/06/19 10:18:16;;;;;;;4.47;2.10;;;20.90;92.80;;;;;;5086642;28;20429;-72
2022/06/19 10:20:50;;;;;;;6.17;2.17;;;21.30;92.40;;;;;;5085415;28;20514;-70
2022/06/19 10:23:28;;;;;;;6.00;2.73;;;21.80;92.40;;;;;;5079893;28;20437;-71
2022/06/19 10:26:12;;;;;;;5.17;2.40;;;22.10;92.40;;;;;;5082398;28;20627;-71
2022/06/19 10:28:56;;;;;;;8.40;3.90;;;22.10;92.90;;;;;;5081993;28;20435;-73
2022/06/19 10:31:36;;;;;;;5.47;3.03;;;21.80;93.80;;;;;;5080455;28;20542;-70
2022/06/19 10:34:14;;;;;;;9.90;3.73;;;21.70;94.20;;;;;;5081269;28;20433;-69
2022/06/19 10:36:48;;;;;;;5.93;2.60;;;21.60;94.50;;;;;;5077672;28;20462;-71
2022/06/19 10:39:35;;;;;;;8.07;3.07;;;21.50;95.00;;;;;;5082002;28;20450;-71
2022/06/19 10:42:14;;;;;;;7.97;3.10;;;21.30;95.10;;;;;;5081736;28;20436;-74
2022/06/19 10:45:06;;;;;;;7.53;3.47;;;21.00;95.40;;;;;;5081013;28;20734;-72
2022/06/19 10:47:50;;;;;;;11.60;4.30;;;20.80;96.40;;;;;;5080757;28;20463;-70
2022/06/19 10:50:28;;;;;;;8.40;3.80;;;20.70;98.10;;;;;;5084454;28;20469;-70
2022/06/19 10:53:07;;;;;;;8.30;3.53;;;20.70;99.30;;;;;;5079857;28;20466;-73
2022/06/19 10:55:38;;;;;;;7.77;3.50;;;20.70;99.90;;;;;;5077444;28;20534;-73
2022/06/19 10:58:17;;;;;;;9.30;3.70;;;20.70;99.90;;;;;;5087174;28;20438;-71
2022/06/19 11:00:46;;;;;;;14.43;3.70;;;20.60;99.90;;;;;;5089191;28;20475;-72
2022/06/19 11:06:29;;;;;;;8.73;3.50;;;20.60;99.90;;;;;;5077610;28;20715;-71
2022/06/19 11:09:00;;;;;;;5.67;3.10;;;20.70;99.90;;;;;;5088120;28;20427;-73
2022/06/19 11:11:30;;;;;;;7.20;3.10;;;20.70;99.90;;;;;;5081003;28;20550;-71
2022/06/19 11:14:00;;;;;;;7.63;3.37;;;20.60;99.90;;;;;;5087440;28;20474;-72
2022/06/19 11:16:28;;;;;;;7.93;3.53;;;20.50;99.90;;;;;;5075733;28;20430;-70
2022/06/19 11:18:58;;;;;;;11.57;3.97;;;20.20;99.90;;;;;;5078031;28;20453;-72
2022/06/19 11:21:28;;;;;;;6.60;4.50;;;20.10;99.90;;;;;;5081890;28;20418;-70
2022/06/19 11:23:57;;;;;;;10.10;3.60;;;19.90;99.90;;;;;;5086746;28;20708;-70
2022/06/19 11:26:28;;;;;;;4.17;3.13;;;19.80;99.90;;;;;;5081655;28;20470;-69
2022/06/19 11:28:59;;;;;;;4.90;3.20;;;19.60;99.90;;;;;;5086368;28;20516;-70
2022/06/19 11:31:29;;;;;;;4.50;3.50;;;19.50;99.90;;;;;;5083183;28;20622;-69
2022/06/19 11:34:00;;;;;;;6.03;3.70;;;19.30;99.90;;;;;;5094929;28;20454;-70
2022/06/19 11:36:37;;;;;;;8.67;3.10;;;19.10;99.90;;;;;;5096442;28;20424;-71
2022/06/19 11:39:32;;;;;;;7.20;3.60;;;19.10;99.90;;;;;;5097594;28;20543;-71
2022/06/19 11:41:59;;;;;;;6.90;3.90;;;19.20;99.90;;;;;;5086963;28;20425;-70
2022/06/19 11:44:26;;;;;;;6.37;4.23;;;19.40;99.90;;;;;;5097426;28;20424;-71
2022/06/19 11:46:55;;;;;;;7.33;3.60;;;19.60;99.90;;;;;;5091218;28;20512;-71
2022/06/19 11:49:30;;;;;;;4.20;3.03;;;19.60;99.90;;;;;;5086193;28;20477;-71
2022/06/19 11:52:00;;;;;;;6.60;3.60;;;19.60;99.90;;;;;;5087253;28;20468;-70
2022/06/19 11:54:31;;;;;;;5.47;3.90;;;19.60;99.90;;;;;;5087273;28;20491;-69
2022/06/19 11:56:59;;;;;;;6.20;2.97;;;19.40;99.90;;;;;;5096181;28;20599;-70
2022/06/19 11:59:54;;;;;;;5.97;3.10;;;19.30;99.90;;;;;;5080970;28;20465;-71
2022/06/19 12:02:25;;;;;;;5.10;2.60;;;19.20;99.90;;;;;;5099109;28;20449;-70
2022/06/19 12:04:56;;;;;;;4.50;2.30;;;19.30;99.90;;;;;;5095655;28;20544;-69
2022/06/19 12:07:37;;;;;;;4.90;3.30;;;19.40;99.90;;;;;;5086598;28;20448;-71
2022/06/19 12:10:07;;;;;;;3.40;2.67;;;19.60;99.90;;;;;;5091902;28;20496;-70
2022/06/19 12:12:35;;;;;;;5.60;3.53;;;19.70;99.90;;;;;;5085750;28;20446;-70
2022/06/19 12:15:23;;;;;;;5.07;3.63;;;19.80;99.90;;;;;;5090747;28;20433;-70
2022/06/19 12:17:57;;;;;;;6.10;3.17;;;19.70;99.90;;;;;;5084018;28;20569;-70
2022/06/19 12:20:28;;;;;;;6.03;3.30;;;19.80;99.90;;;;;;5083304;28;20504;-70
2022/06/19 12:22:59;;;;;;;4.67;2.20;;;19.80;99.90;;;;;;5077200;28;20430;-69
2022/06/19 12:25:41;;;;;;;5.73;3.27;;;19.70;99.90;;;;;;5079693;28;20515;-70
2022/06/19 12:28:23;;;;;;;7.07;3.37;;;19.80;99.90;;;;;;5083440;28;20542;-69
2022/06/19 12:30:55;;;;;;;8.77;3.93;;;19.90;99.90;;;;;;5084435;28;20457;-69
2022/06/19 12:33:26;;;;;;;6.63;3.43;;;20.10;99.90;;;;;;5084003;28;20714;-70
2022/06/19 12:35:55;;;;;;;6.80;3.00;;;20.30;99.90;;;;;;5083295;28;20457;-70
2022/06/19 12:38:24;;;;;;;6.50;2.87;;;20.40;99.90;;;;;;5085211;28;20669;-70
2022/06/19 12:41:09;;;;;;;7.00;3.20;;;20.50;99.20;;;;;;5088356;28;20461;-70
2022/06/19 12:43:50;;;;;;;7.07;2.83;;;20.50;99.60;;;;;;5074689;28;20450;-70
2022/06/19 12:46:27;;;;;;;4.40;2.83;;;20.70;99.60;;;;;;5081750;28;20483;-69
2022/06/19 12:49:00;;;;;;;2.93;2.30;;;20.70;98.90;;;;;;5085878;28;20515;-70
2022/06/19 12:51:36;;;;;;;7.10;2.30;;;20.70;98.70;;;;;;5084521;28;20614;-70
2022/06/19 12:54:15;;;;;;;7.60;3.10;;;20.80;98.30;;;;;;5081676;28;20467;-72
2022/06/19 12:57:07;;;;;;;8.20;3.57;;;20.80;97.70;;;;;;5083002;28;20431;-68
2022/06/19 12:59:59;;;;;;;6.00;3.33;;;20.70;98.10;;;;;;5078498;28;20454;-70
2022/06/19 13:02:47;;;;;;;5.20;2.73;;;20.50;98.20;;;;;;5083072;28;20530;-70
2022/06/19 13:05:25;;;;;;;7.77;4.37;;;20.40;98.20;;;;;;5079943;28;20671;-70
2022/06/19 13:08:04;;;;;;;2.80;2.40;;;20.20;98.90;;;;;;5088976;28;20445;-70
2022/06/19 13:10:47;;;;;;;3.60;3.00;;;20.20;99.40;;;;;;5078194;28;20507;-71
2022/06/19 13:13:31;;;;;;;5.27;2.60;;;20.10;99.40;;;;;;5083354;28;20737;-70